Time;durP1;ratioP1;P1;durP2;ratioP2;P2;SDS_P1;SDS_P2;PMS_P1;PMS_P2;Temp;Humidity;BMP_temperature;BMP_pressure;BME280_temperature;BME280_humidity;BME280_pressure;Samples;Min_cycle;Max_cycle;Signal;HPM_P1;HPM_P2
2021/07/11 00:02:24;;;;;;;14.48;10.02;;;26.40;68.00;;;;;;5053242;28;20364;-72
2021/07/11 00:04:50;;;;;;;12.98;10.00;;;26.30;68.00;;;;;;5053888;28;20033;-72
2021/07/11 00:07:16;;;;;;;12.95;10.20;;;26.30;68.20;;;;;;5053470;28;20036;-72
2021/07/11 00:09:43;;;;;;;11.50;9.50;;;26.30;68.30;;;;;;5053484;28;20025;-72
2021/07/11 00:12:08;;;;;;;13.98;10.48;;;26.30;68.50;;;;;;5053256;28;20036;-72
2021/07/11 00:14:34;;;;;;;13.35;9.95;;;26.20;68.80;;;;;;5053404;28;20021;-72
2021/07/11 00:17:00;;;;;;;12.82;10.57;;;26.20;69.00;;;;;;5053097;28;20079;-72
2021/07/11 00:19:25;;;;;;;12.77;10.88;;;26.20;69.10;;;;;;5053329;28;20569;-72
2021/07/11 00:21:51;;;;;;;14.82;10.68;;;26.10;69.30;;;;;;5052984;28;20017;-72
2021/07/11 00:24:17;;;;;;;12.73;10.27;;;26.10;69.40;;;;;;5052124;28;20025;-72
2021/07/11 00:26:42;;;;;;;13.23;10.13;;;26.10;69.70;;;;;;5053196;28;20025;-72
2021/07/11 00:29:08;;;;;;;13.98;10.13;;;26.10;69.80;;;;;;5052873;28;20079;-72
2021/07/11 00:31:34;;;;;;;14.80;10.75;;;26.00;69.90;;;;;;5053326;28;20025;-72
2021/07/11 00:33:59;;;;;;;15.80;10.10;;;26.00;69.90;;;;;;5055447;28;20071;-72
2021/07/11 00:36:25;;;;;;;11.05;9.80;;;26.00;70.00;;;;;;5056918;28;20021;-72
2021/07/11 00:38:51;;;;;;;13.02;10.40;;;26.00;70.00;;;;;;5056783;28;20433;-72
2021/07/11 00:41:17;;;;;;;13.35;10.77;;;25.90;70.00;;;;;;5056216;28;20542;-72
2021/07/11 00:43:42;;;;;;;11.57;10.10;;;25.90;70.10;;;;;;5056824;28;20079;-72
2021/07/11 00:46:08;;;;;;;12.55;9.82;;;25.90;70.00;;;;;;5056465;28;20057;-73
2021/07/11 00:48:34;;;;;;;14.52;10.60;;;25.90;70.00;;;;;;5056716;28;20458;-72
2021/07/11 00:50:59;;;;;;;17.98;10.77;;;25.80;70.00;;;;;;5056688;28;20028;-72
2021/07/11 00:53:25;;;;;;;14.13;10.07;;;25.80;70.00;;;;;;5056893;28;20044;-72
2021/07/11 00:55:51;;;;;;;12.18;10.30;;;25.80;70.10;;;;;;5056435;28;20040;-72
2021/07/11 00:58:17;;;;;;;15.45;9.70;;;25.70;70.10;;;;;;5056412;28;20044;-71
2021/07/11 01:00:48;;;;;;;15.52;10.73;;;25.70;70.20;;;;;;5056440;28;20028;-71
2021/07/11 01:03:26;;;;;;;14.27;10.40;;;25.70;70.30;;;;;;5057065;28;20035;-71
2021/07/11 01:05:53;;;;;;;13.88;10.20;;;25.60;70.10;;;;;;5056637;28;20029;-71
2021/07/11 01:08:39;;;;;;;12.63;10.80;;;25.60;70.20;;;;;;5056346;28;20037;-71
2021/07/11 01:11:09;;;;;;;14.60;10.40;;;25.60;70.40;;;;;;5056317;28;20460;-72
2021/07/11 01:13:36;;;;;;;13.32;10.73;;;25.60;70.40;;;;;;5056768;28;20029;-72
2021/07/11 01:16:07;;;;;;;11.43;10.15;;;25.60;70.60;;;;;;5056221;28;20451;-72
2021/07/11 01:18:38;;;;;;;13.35;10.15;;;25.50;70.80;;;;;;5055795;28;20483;-72
2021/07/11 01:21:08;;;;;;;15.50;10.85;;;25.50;70.90;;;;;;5056181;28;20017;-72
2021/07/11 01:23:52;;;;;;;13.90;10.13;;;25.50;71.20;;;;;;5056100;28;20017;-72
2021/07/11 01:26:20;;;;;;;14.07;10.75;;;25.50;71.30;;;;;;5055994;28;20029;-72
2021/07/11 01:28:48;;;;;;;13.57;10.02;;;25.50;71.30;;;;;;5055955;28;20028;-72
2021/07/11 01:31:15;;;;;;;13.32;9.43;;;25.50;71.50;;;;;;5056189;28;20063;-72
2021/07/11 01:33:43;;;;;;;13.13;10.15;;;25.50;71.50;;;;;;5056098;28;20021;-72
2021/07/11 01:36:11;;;;;;;13.45;10.63;;;25.40;71.50;;;;;;5056331;28;20029;-72
2021/07/11 01:38:38;;;;;;;12.48;9.95;;;25.50;71.70;;;;;;5055895;28;20069;-72
2021/07/11 01:41:07;;;;;;;14.75;10.10;;;25.40;71.60;;;;;;5055691;28;20112;-72
2021/07/11 01:43:34;;;;;;;14.43;10.80;;;25.40;71.70;;;;;;5056144;28;20021;-71
2021/07/11 01:46:01;;;;;;;14.27;10.80;;;25.40;71.80;;;;;;5055334;28;20032;-71
2021/07/11 01:48:29;;;;;;;16.02;11.25;;;25.40;72.00;;;;;;5055468;28;20090;-72
2021/07/11 01:50:55;;;;;;;14.93;11.20;;;25.40;72.20;;;;;;5055446;28;20052;-71
2021/07/11 01:53:26;;;;;;;14.77;11.18;;;25.40;72.40;;;;;;5055771;28;20091;-72
2021/07/11 01:55:53;;;;;;;13.35;11.15;;;25.40;72.60;;;;;;5055150;28;20059;-71
2021/07/11 01:58:19;;;;;;;13.00;10.80;;;25.30;72.80;;;;;;5055735;28;20115;-71
2021/07/11 02:00:45;;;;;;;15.27;11.73;;;25.30;72.90;;;;;;5055582;28;20060;-71
2021/07/11 02:03:16;;;;;;;16.38;11.68;;;25.30;73.20;;;;;;5055318;28;20074;-71
2021/07/11 02:05:42;;;;;;;19.02;12.75;;;25.30;73.50;;;;;;5055809;28;20029;-71
2021/07/11 02:08:07;;;;;;;16.88;13.30;;;25.30;73.60;;;;;;5054999;28;20133;-71
2021/07/11 02:10:33;;;;;;;16.20;12.30;;;25.20;73.70;;;;;;5054930;28;20411;-71
2021/07/11 02:13:07;;;;;;;15.50;13.70;;;25.20;73.90;;;;;;5055189;28;20025;-72
2021/07/11 02:15:36;;;;;;;18.65;14.70;;;25.20;74.00;;;;;;5055063;28;20078;-71
2021/07/11 02:18:02;;;;;;;16.75;14.98;;;25.20;73.90;;;;;;5055017;28;20063;-71
2021/07/11 02:20:28;;;;;;;15.93;14.32;;;25.30;73.80;;;;;;5054887;28;20479;-72
2021/07/11 02:22:56;;;;;;;18.95;14.30;;;25.30;73.90;;;;;;5055027;28;20025;-71
2021/07/11 02:25:21;;;;;;;14.77;12.23;;;25.30;73.80;;;;;;5055451;28;20344;-71
2021/07/11 02:27:49;;;;;;;14.10;11.07;;;25.30;73.50;;;;;;5055081;28;20033;-71
2021/07/11 02:30:18;;;;;;;13.00;10.43;;;25.30;73.20;;;;;;5054840;28;20055;-72
2021/07/11 02:32:53;;;;;;;13.23;9.57;;;25.30;72.60;;;;;;5054736;28;20378;-72
2021/07/11 02:35:41;;;;;;;11.07;8.98;;;25.40;72.00;;;;;;5055268;28;20368;-72
2021/07/11 02:38:08;;;;;;;10.65;8.38;;;25.30;71.40;;;;;;5054507;28;20387;-72
2021/07/11 02:40:35;;;;;;;11.02;8.50;;;25.40;70.90;;;;;;5054599;28;20024;-72
2021/07/11 02:43:03;;;;;;;9.73;8.75;;;25.40;70.50;;;;;;5054482;28;20096;-72
2021/07/11 02:45:30;;;;;;;18.63;8.38;;;25.40;70.70;;;;;;5054486;28;20029;-73
2021/07/11 02:47:58;;;;;;;13.50;8.27;;;25.50;69.70;;;;;;5054386;28;20037;-72
2021/07/11 02:50:24;;;;;;;14.80;8.77;;;25.50;69.50;;;;;;5054368;28;20117;-72
2021/07/11 02:52:52;;;;;;;11.30;8.52;;;25.50;69.30;;;;;;5054340;28;20499;-71
2021/07/11 02:55:24;;;;;;;10.98;7.78;;;25.60;69.20;;;;;;5054402;28;20414;-72
2021/07/11 02:57:56;;;;;;;9.48;7.18;;;25.60;69.00;;;;;;5052924;28;20510;-71
2021/07/11 03:00:22;;;;;;;11.05;7.57;;;25.60;68.80;;;;;;5054714;28;20071;-71
2021/07/11 03:02:48;;;;;;;9.48;7.60;;;25.60;68.70;;;;;;5054199;28;20029;-71
2021/07/11 03:05:20;;;;;;;8.80;7.63;;;25.70;68.60;;;;;;5053907;28;20060;-72
2021/07/11 03:07:46;;;;;;;8.38;7.43;;;25.70;68.30;;;;;;5053989;28;20108;-72
2021/07/11 03:10:14;;;;;;;15.20;8.30;;;25.80;68.10;;;;;;5053880;28;20052;-72
2021/07/11 03:12:40;;;;;;;11.00;8.30;;;25.90;67.80;;;;;;5054033;28;20075;-72
2021/07/11 03:15:07;;;;;;;10.65;7.32;;;25.90;67.70;;;;;;5053984;28;20024;-72
2021/07/11 03:17:34;;;;;;;9.45;7.22;;;25.90;67.20;;;;;;5053819;28;20033;-72
2021/07/11 03:20:01;;;;;;;8.85;6.88;;;26.00;66.90;;;;;;5054176;28;20455;-72
2021/07/11 03:22:31;;;;;;;9.68;6.60;;;26.00;66.30;;;;;;5053548;28;20032;-71
2021/07/11 03:25:04;;;;;;;7.53;6.28;;;26.10;65.70;;;;;;5053861;28;20029;-71
2021/07/11 03:27:31;;;;;;;9.93;6.70;;;26.10;65.00;;;;;;5054194;28;20029;-78
2021/07/11 03:30:18;;;;;;;7.38;6.38;;;26.10;64.60;;;;;;5053745;28;20025;-72
2021/07/11 03:32:50;;;;;;;8.38;6.72;;;26.30;64.30;;;;;;5053680;28;20111;-72
2021/07/11 03:35:17;;;;;;;10.57;7.30;;;26.30;63.80;;;;;;5053737;28;20178;-73
2021/07/11 03:37:45;;;;;;;8.00;6.32;;;26.30;63.70;;;;;;5053252;28;20395;-72
2021/07/11 03:40:22;;;;;;;10.98;7.18;;;26.30;63.20;;;;;;5053914;28;20021;-72
2021/07/11 03:42:50;;;;;;;9.93;6.18;;;26.40;63.10;;;;;;5054230;28;20100;-73
2021/07/11 03:45:16;;;;;;;11.05;7.53;;;26.40;63.20;;;;;;5053845;28;20021;-73
2021/07/11 03:47:50;;;;;;;9.60;6.82;;;26.50;63.10;;;;;;5053363;28;20033;-72
2021/07/11 03:50:19;;;;;;;;;;;26.60;63.00;;;;;;5054206;28;20032;-71
2021/07/11 03:53:09;;;;;;;7.50;5.95;;;26.60;63.10;;;;;;5053501;28;19917;-72
2021/07/11 03:55:37;;;;;;;8.55;6.25;;;26.70;62.70;;;;;;5051078;28;20033;-72
2021/07/11 03:58:05;;;;;;;8.55;6.18;;;26.70;62.40;;;;;;5053723;28;20033;-71
2021/07/11 04:00:31;;;;;;;9.85;6.07;;;26.70;62.20;;;;;;5053104;28;20475;-71
2021/07/11 04:03:01;;;;;;;10.23;6.53;;;26.80;62.30;;;;;;5054084;28;20027;-71
2021/07/11 04:05:30;;;;;;;9.25;6.25;;;26.80;62.40;;;;;;5053560;28;20425;-71
2021/07/11 04:07:58;;;;;;;13.00;7.13;;;26.90;62.70;;;;;;5054024;28;20064;-71
2021/07/11 04:10:26;;;;;;;7.63;6.82;;;26.90;62.70;;;;;;5057485;28;20025;-71
2021/07/11 04:12:53;;;;;;;10.20;7.50;;;27.00;62.90;;;;;;5057922;28;20029;-71
2021/07/11 04:15:19;;;;;;;10.02;8.00;;;27.10;63.10;;;;;;5057350;28;20036;-72
2021/07/11 04:17:48;;;;;;;11.05;8.10;;;27.20;63.20;;;;;;5057306;28;20490;-73
2021/07/11 04:20:16;;;;;;;13.98;8.15;;;27.20;63.20;;;;;;5057312;28;20421;-72
2021/07/11 04:22:43;;;;;;;13.32;8.70;;;27.30;63.30;;;;;;5056897;28;20060;-71
2021/07/11 04:25:11;;;;;;;10.93;8.25;;;27.30;63.30;;;;;;5057682;28;20052;-72
2021/07/11 04:27:39;;;;;;;11.88;9.02;;;27.40;63.30;;;;;;5057142;28;20448;-73
2021/07/11 04:30:06;;;;;;;11.30;8.07;;;27.40;63.20;;;;;;5057612;28;20053;-72
2021/07/11 04:32:34;;;;;;;11.30;8.35;;;27.50;63.10;;;;;;5057301;28;20029;-72
2021/07/11 04:34:59;;;;;;;11.30;8.10;;;27.50;62.90;;;;;;5057360;28;20462;-71
2021/07/11 04:37:25;;;;;;;12.85;9.38;;;27.60;62.90;;;;;;5057172;28;20068;-71
2021/07/11 04:39:51;;;;;;;9.38;8.38;;;27.70;63.10;;;;;;5056881;28;20052;-72
2021/07/11 04:42:17;;;;;;;13.20;8.30;;;27.70;62.90;;;;;;5057166;28;20108;-71
2021/07/11 04:44:46;;;;;;;11.02;8.57;;;27.70;62.60;;;;;;5056697;28;20029;-72
2021/07/11 04:47:14;;;;;;;11.68;8.85;;;27.70;62.50;;;;;;5057304;28;20514;-71
2021/07/11 04:49:41;;;;;;;23.33;9.77;;;27.80;62.60;;;;;;5056759;28;20021;-72
2021/07/11 04:52:07;;;;;;;11.52;8.93;;;27.80;62.60;;;;;;5056531;28;20112;-72
2021/07/11 04:54:36;;;;;;;13.45;8.65;;;27.90;62.80;;;;;;5056693;28;20079;-72
2021/07/11 04:57:04;;;;;;;10.20;8.30;;;27.90;62.90;;;;;;5056790;28;20467;-72
2021/07/11 04:59:31;;;;;;;12.95;8.18;;;27.90;62.70;;;;;;5056497;28;20052;-72
2021/07/11 05:01:57;;;;;;;10.57;8.88;;;27.90;62.70;;;;;;5056696;28;20036;-71
2021/07/11 05:04:23;;;;;;;13.02;8.30;;;28.00;63.00;;;;;;5056624;28;20379;-72
2021/07/11 05:06:49;;;;;;;9.75;8.75;;;28.00;63.10;;;;;;5056288;28;20025;-72
2021/07/11 05:09:14;;;;;;;12.75;8.35;;;28.10;63.20;;;;;;5056596;28;20029;-72
2021/07/11 05:11:40;;;;;;;12.10;7.60;;;28.10;63.10;;;;;;5056430;28;20040;-72
2021/07/11 05:14:06;;;;;;;11.07;8.23;;;28.10;62.60;;;;;;5056248;28;20025;-72
2021/07/11 05:16:32;;;;;;;9.85;7.43;;;28.20;62.20;;;;;;5056308;28;20147;-72
2021/07/11 05:18:58;;;;;;;10.98;7.72;;;28.20;62.20;;;;;;5055825;28;20467;-73
2021/07/11 05:21:24;;;;;;;9.02;7.60;;;28.30;61.90;;;;;;5055522;28;20112;-71
2021/07/11 05:23:50;;;;;;;9.98;7.05;;;28.30;61.30;;;;;;5055881;28;20468;-72
2021/07/11 05:26:16;;;;;;;7.65;6.30;;;28.40;60.90;;;;;;5056315;28;20036;-72
2021/07/11 05:28:44;;;;;;;8.95;5.97;;;28.40;60.30;;;;;;5056028;28;20519;-73
2021/07/11 05:31:11;;;;;;;8.60;5.88;;;28.50;59.70;;;;;;5055802;28;20059;-72
2021/07/11 05:33:36;;;;;;;6.90;6.20;;;28.50;59.10;;;;;;5071564;28;20029;-72
2021/07/11 05:36:02;;;;;;;8.35;6.65;;;28.60;58.80;;;;;;5055804;28;20043;-72
2021/07/11 05:38:28;;;;;;;7.00;6.20;;;28.60;58.80;;;;;;5055899;28;20035;-74
2021/07/11 05:40:54;;;;;;;10.05;6.65;;;28.60;58.70;;;;;;5055679;28;20068;-72
2021/07/11 05:43:19;;;;;;;8.77;6.05;;;28.70;58.80;;;;;;5056268;28;20032;-72
2021/07/11 05:45:45;;;;;;;13.23;7.35;;;28.70;59.00;;;;;;5055669;28;20028;-72
2021/07/11 05:48:11;;;;;;;8.57;6.40;;;28.70;58.60;;;;;;5055567;28;20028;-72
2021/07/11 05:50:37;;;;;;;11.57;6.72;;;28.70;58.00;;;;;;5055664;28;20060;-72
2021/07/11 05:53:03;;;;;;;8.50;5.97;;;28.70;57.60;;;;;;5055158;28;20396;-72
2021/07/11 05:55:28;;;;;;;10.45;6.38;;;28.80;57.60;;;;;;5055401;28;20451;-72
2021/07/11 05:57:54;;;;;;;8.90;6.97;;;28.80;58.00;;;;;;5055219;28;20025;-73
2021/07/11 06:00:20;;;;;;;9.95;6.82;;;28.90;58.40;;;;;;5055340;28;20395;-73
2021/07/11 06:02:45;;;;;;;7.82;6.78;;;28.80;58.60;;;;;;5070778;28;20040;-73
2021/07/11 06:05:12;;;;;;;8.98;6.95;;;28.90;58.50;;;;;;5055640;28;20036;-72
2021/07/11 06:07:38;;;;;;;10.07;7.18;;;28.90;58.50;;;;;;5055219;28;20033;-72
2021/07/11 06:10:07;;;;;;;9.45;7.13;;;28.90;58.60;;;;;;5055494;28;20055;-73
2021/07/11 06:12:34;;;;;;;10.88;7.60;;;28.90;59.30;;;;;;5055088;28;20029;-73
2021/07/11 06:15:02;;;;;;;8.43;7.35;;;29.00;58.40;;;;;;5054862;28;20025;-73
2021/07/11 06:17:29;;;;;;;8.18;7.00;;;29.00;58.30;;;;;;5054904;28;20071;-73
2021/07/11 06:19:55;;;;;;;7.70;6.90;;;29.00;58.20;;;;;;5070574;28;20028;-73
2021/07/11 06:22:21;;;;;;;10.43;7.20;;;29.10;58.20;;;;;;5055437;28;20466;-73
2021/07/11 06:24:46;;;;;;;8.10;6.80;;;29.10;58.00;;;;;;5055353;28;20444;-73
2021/07/11 06:27:12;;;;;;;8.93;7.15;;;29.20;58.00;;;;;;5070167;28;20025;-72
2021/07/11 06:29:38;;;;;;;8.70;6.80;;;29.30;58.00;;;;;;5055272;28;20028;-73
2021/07/11 06:32:04;;;;;;;8.80;7.40;;;29.30;57.80;;;;;;5054543;28;20056;-73
2021/07/11 06:34:30;;;;;;;9.95;7.18;;;29.40;57.70;;;;;;5054301;28;20029;-73
2021/07/11 06:36:55;;;;;;;10.00;7.50;;;29.50;57.80;;;;;;5054266;28;20384;-73
2021/07/11 06:39:21;;;;;;;9.57;7.30;;;29.50;57.60;;;;;;5054491;28;20020;-73
2021/07/11 06:41:47;;;;;;;10.05;7.63;;;29.60;57.60;;;;;;5054606;28;20032;-73
2021/07/11 06:44:12;;;;;;;9.68;7.13;;;29.70;57.60;;;;;;5054561;28;20561;-73
2021/07/11 06:46:38;;;;;;;8.73;7.30;;;29.80;57.20;;;;;;5054191;28;20085;-72
2021/07/11 06:49:04;;;;;;;10.07;6.70;;;29.80;56.80;;;;;;5054428;28;20053;-73
2021/07/11 06:51:30;;;;;;;8.02;7.22;;;29.90;56.60;;;;;;5054231;28;20028;-73
2021/07/11 06:53:55;;;;;;;7.50;6.22;;;29.90;56.50;;;;;;5054793;28;20493;-73
2021/07/11 06:56:21;;;;;;;8.32;7.05;;;30.10;56.20;;;;;;5054194;28;20021;-72
2021/07/11 06:58:47;;;;;;;8.95;6.72;;;30.10;56.10;;;;;;5054388;28;20033;-72
2021/07/11 07:01:12;;;;;;;9.07;6.88;;;30.20;56.00;;;;;;5054479;28;20037;-72
2021/07/11 07:03:39;;;;;;;8.05;6.55;;;30.30;55.90;;;;;;5053954;28;20025;-74
2021/07/11 07:06:09;;;;;;;7.43;6.57;;;30.30;55.40;;;;;;5054211;28;20430;-72
2021/07/11 07:08:35;;;;;;;8.60;6.28;;;30.40;55.50;;;;;;5054297;28;20073;-72
2021/07/11 07:11:01;;;;;;;8.27;6.57;;;30.40;55.50;;;;;;5054661;28;20498;-73
2021/07/11 07:13:26;;;;;;;10.65;6.80;;;30.50;55.50;;;;;;5054026;28;20024;-73
2021/07/11 07:15:52;;;;;;;9.45;7.18;;;30.60;55.30;;;;;;5054754;28;20371;-73
2021/07/11 07:18:18;;;;;;;11.68;6.38;;;30.70;55.30;;;;;;5054039;28;20045;-73
2021/07/11 07:20:44;;;;;;;9.30;5.90;;;30.80;55.20;;;;;;5053962;28;20020;-73
2021/07/11 07:23:09;;;;;;;10.55;6.25;;;30.90;55.00;;;;;;5053942;28;20021;-71
2021/07/11 07:25:35;;;;;;;6.65;5.65;;;31.00;54.70;;;;;;5053829;28;20415;-73
2021/07/11 07:28:01;;;;;;;12.60;6.43;;;31.00;54.10;;;;;;5054564;28;20057;-73
2021/07/11 07:30:27;;;;;;;6.75;6.10;;;31.10;54.20;;;;;;5053706;28;20063;-73
2021/07/11 07:32:52;;;;;;;9.35;6.65;;;31.10;54.00;;;;;;5053398;28;20029;-72
2021/07/11 07:35:20;;;;;;;6.65;5.60;;;31.20;53.90;;;;;;5053672;28;20052;-72
2021/07/11 07:37:46;;;;;;;9.45;6.40;;;31.30;53.70;;;;;;5053575;28;20029;-72
2021/07/11 07:40:17;;;;;;;7.15;5.75;;;31.40;53.60;;;;;;5053540;28;20048;-72
2021/07/11 07:42:44;;;;;;;8.10;6.10;;;31.50;53.50;;;;;;5053178;28;20029;-72
2021/07/11 07:45:10;;;;;;;7.57;6.03;;;31.60;53.00;;;;;;5053166;28;20044;-74
2021/07/11 07:47:37;;;;;;;6.50;5.90;;;31.60;52.70;;;;;;5053840;28;20033;-72
2021/07/11 07:50:06;;;;;;;9.50;5.90;;;31.70;52.20;;;;;;5053384;28;20028;-73
2021/07/11 07:52:32;;;;;;;6.75;5.18;;;31.80;52.10;;;;;;5053524;28;20564;-72
2021/07/11 07:54:58;;;;;;;7.25;6.10;;;31.90;52.30;;;;;;5053471;28;20067;-74
2021/07/11 07:57:23;;;;;;;6.53;5.60;;;32.00;52.30;;;;;;5053470;28;20128;-73
2021/07/11 07:59:49;;;;;;;6.28;5.68;;;32.10;51.80;;;;;;5053575;28;20467;-74
2021/07/11 08:02:15;;;;;;;7.65;5.88;;;32.20;51.80;;;;;;5069645;28;20025;-73
2021/07/11 08:04:42;;;;;;;10.35;5.47;;;32.20;51.60;;;;;;5053355;28;20033;-72
2021/07/11 08:07:08;;;;;;;6.85;5.53;;;32.30;51.60;;;;;;5053193;28;20036;-72
2021/07/11 08:09:33;;;;;;;10.05;5.68;;;32.40;51.70;;;;;;5053199;28;20021;-72
2021/07/11 08:11:59;;;;;;;6.90;5.82;;;32.60;51.30;;;;;;5053200;28;20025;-73
2021/07/11 08:14:25;;;;;;;6.68;5.65;;;32.60;50.90;;;;;;5053461;28;20037;-72
2021/07/11 08:16:51;;;;;;;7.30;5.47;;;32.80;50.90;;;;;;5053139;28;20181;-74
2021/07/11 08:19:16;;;;;;;9.23;5.20;;;32.90;51.00;;;;;;5053194;28;20071;-72
2021/07/11 08:21:42;;;;;;;6.78;5.32;;;33.00;50.60;;;;;;5053473;28;20448;-72
2021/07/11 08:24:08;;;;;;;9.38;5.10;;;33.10;50.40;;;;;;5053500;28;20179;-73
2021/07/11 08:26:34;;;;;;;7.97;5.50;;;33.30;50.10;;;;;;5053465;28;20047;-73
2021/07/11 08:29:00;;;;;;;6.90;5.00;;;33.40;49.80;;;;;;5053141;28;20032;-73
2021/07/11 08:31:25;;;;;;;6.43;4.97;;;33.50;49.50;;;;;;5051971;28;20152;-72
2021/07/11 08:33:51;;;;;;;9.52;5.15;;;33.60;49.40;;;;;;5052913;28;20061;-71
2021/07/11 08:36:17;;;;;;;5.30;4.80;;;33.70;49.40;;;;;;5052908;28;20112;-73
2021/07/11 08:38:43;;;;;;;7.13;5.28;;;33.90;48.90;;;;;;5052879;28;20036;-73
2021/07/11 08:41:09;;;;;;;5.75;5.15;;;34.10;48.50;;;;;;5052439;28;20025;-76
2021/07/11 08:43:38;;;;;;;6.47;4.60;;;34.30;48.50;;;;;;5050928;28;20111;-74
2021/07/11 08:46:05;;;;;;;7.10;5.00;;;34.50;48.10;;;;;;5051103;28;20035;-73
2021/07/11 08:48:31;;;;;;;6.10;4.97;;;34.70;48.20;;;;;;5053470;28;20037;-72
2021/07/11 08:51:02;;;;;;;7.95;4.70;;;34.90;47.50;;;;;;5053421;28;20128;-72
2021/07/11 08:53:32;;;;;;;6.03;4.95;;;35.20;47.00;;;;;;5052390;28;20045;-72
2021/07/11 08:56:01;;;;;;;11.55;4.63;;;35.30;45.50;;;;;;5055535;28;20031;-72
2021/07/11 08:58:27;;;;;;;6.57;4.88;;;35.50;45.50;;;;;;5055916;28;20120;-74
2021/07/11 09:00:53;;;;;;;6.43;4.50;;;35.70;45.10;;;;;;5056523;28;20048;-72
2021/07/11 09:03:19;;;;;;;6.65;4.13;;;35.80;44.20;;;;;;5056707;28;20029;-74
2021/07/11 09:05:45;;;;;;;5.13;4.60;;;36.00;43.60;;;;;;5056695;28;20082;-73
2021/07/11 09:08:20;;;;;;;5.13;4.50;;;36.00;43.30;;;;;;5056990;28;20040;-73
2021/07/11 09:10:54;;;;;;;5.80;4.60;;;36.20;43.20;;;;;;5056395;28;20029;-73
2021/07/11 09:13:23;;;;;;;5.43;4.70;;;36.30;42.70;;;;;;5056491;28;20033;-72
2021/07/11 09:15:53;;;;;;;5.68;4.28;;;36.60;42.50;;;;;;5056378;28;20398;-73
2021/07/11 09:18:23;;;;;;;4.47;4.07;;;36.90;42.30;;;;;;5056041;28;20116;-73
2021/07/11 09:21:06;;;;;;;5.60;4.18;;;37.20;41.60;;;;;;5056525;28;20021;-73
2021/07/11 09:23:33;;;;;;;7.77;4.63;;;37.60;41.50;;;;;;5055674;28;20086;-73
2021/07/11 09:26:01;;;;;;;7.50;4.45;;;38.00;41.10;;;;;;5056326;28;20432;-73
2021/07/11 09:28:29;;;;;;;6.10;4.40;;;38.30;40.40;;;;;;5071641;28;20376;-73
2021/07/11 09:31:08;;;;;;;7.00;4.38;;;38.60;40.00;;;;;;5056290;28;20465;-74
2021/07/11 09:33:35;;;;;;;7.25;4.72;;;38.90;39.30;;;;;;5055800;28;20490;-75
2021/07/11 09:36:22;;;;;;;5.20;4.10;;;39.20;39.00;;;;;;5055872;28;20454;-74
2021/07/11 09:38:50;;;;;;;4.75;4.18;;;39.40;38.80;;;;;;5055640;28;20044;-74
2021/07/11 09:41:29;;;;;;;8.10;4.53;;;39.70;38.70;;;;;;5056351;28;20104;-74
2021/07/11 09:43:57;;;;;;;8.00;4.18;;;39.80;38.20;;;;;;5056068;28;20032;-74
2021/07/11 09:46:24;;;;;;;4.75;3.97;;;40.10;37.80;;;;;;5055528;28;20036;-74
2021/07/11 09:48:51;;;;;;;5.47;4.30;;;40.30;37.50;;;;;;5055835;28;20033;-72
2021/07/11 09:51:19;;;;;;;5.80;3.97;;;40.40;37.60;;;;;;5055471;28;20398;-73
2021/07/11 09:53:45;;;;;;;6.18;4.05;;;40.70;37.00;;;;;;5055438;28;20041;-74
2021/07/11 09:56:29;;;;;;;5.00;4.05;;;41.00;37.00;;;;;;5054829;28;20025;-73
2021/07/11 09:59:01;;;;;;;4.60;4.20;;;41.30;36.70;;;;;;5055434;28;20059;-73
2021/07/11 10:01:28;;;;;;;5.57;4.30;;;41.50;36.20;;;;;;5055288;28;20040;-73
2021/07/11 10:03:55;;;;;;;7.60;4.55;;;41.60;35.90;;;;;;5055217;28;20053;-75
2021/07/11 10:06:21;;;;;;;6.78;4.07;;;41.80;35.60;;;;;;5055376;28;20028;-73
2021/07/11 10:08:46;;;;;;;7.25;4.30;;;41.90;35.30;;;;;;5055300;28;20083;-75
2021/07/11 10:11:12;;;;;;;7.15;4.20;;;42.10;35.10;;;;;;5055180;28;20025;-73
2021/07/11 10:13:38;;;;;;;4.43;3.90;;;42.30;35.10;;;;;;5054785;28;20033;-74
2021/07/11 10:16:09;;;;;;;6.25;4.25;;;42.50;34.70;;;;;;5055620;28;20079;-74
2021/07/11 10:18:35;;;;;;;5.43;4.35;;;42.70;34.50;;;;;;5054935;28;20044;-74
2021/07/11 10:21:01;;;;;;;5.03;4.18;;;42.70;34.60;;;;;;5055100;28;20055;-73
2021/07/11 10:23:37;;;;;;;4.70;4.30;;;42.90;34.80;;;;;;5054506;28;20036;-74
2021/07/11 10:26:12;;;;;;;5.47;4.05;;;43.10;34.40;;;;;;5055369;28;20036;-72
2021/07/11 10:28:46;;;;;;;4.60;4.20;;;43.20;34.00;;;;;;5054800;28;20060;-72
2021/07/11 10:31:27;;;;;;;4.65;3.88;;;43.40;34.10;;;;;;5055270;28;20383;-74
2021/07/11 10:33:55;;;;;;;5.15;4.25;;;43.60;33.90;;;;;;5055101;28;20037;-74
2021/07/11 10:36:35;;;;;;;5.45;4.20;;;43.70;33.90;;;;;;5054763;28;20067;-74
2021/07/11 10:39:04;;;;;;;5.72;4.22;;;43.90;33.80;;;;;;5054884;28;20049;-73
2021/07/11 10:41:32;;;;;;;5.50;4.22;;;44.10;33.70;;;;;;5055161;28;20401;-74
2021/07/11 10:44:02;;;;;;;4.50;4.10;;;44.20;33.30;;;;;;5054767;28;20029;-73
2021/07/11 10:46:45;;;;;;;5.03;4.53;;;44.30;33.00;;;;;;5054892;28;20078;-73
2021/07/11 10:49:11;;;;;;;;;;;44.30;33.00;;;;;;5054961;28;20119;-73
2021/07/11 10:51:44;;;;;;;7.22;4.72;;;44.30;33.50;;;;;;5054777;28;20366;-73
2021/07/11 10:54:27;;;;;;;5.07;4.00;;;44.30;33.00;;;;;;5052792;28;20072;-69
2021/07/11 10:56:53;;;;;;;;;;;44.20;32.90;;;;;;5054728;28;20033;-69
2021/07/11 10:59:33;;;;;;;5.85;4.40;;;44.20;33.60;;;;;;5053984;28;19952;-68
2021/07/11 11:02:02;;;;;;;6.10;4.18;;;44.30;34.50;;;;;;5054598;28;20084;-69
2021/07/11 11:04:28;;;;;;;4.55;4.15;;;44.50;34.10;;;;;;5053993;28;20072;-73
2021/07/11 11:06:55;;;;;;;6.00;4.60;;;44.70;33.70;;;;;;5054662;28;20056;-73
2021/07/11 11:09:39;;;;;;;6.22;4.40;;;44.90;33.40;;;;;;5052775;28;20128;-73
2021/07/11 11:12:26;;;;;;;5.25;4.25;;;45.10;33.00;;;;;;5054106;28;20028;-72
2021/07/11 11:14:59;;;;;;;5.03;4.50;;;45.40;32.90;;;;;;5054050;28;20029;-73
2021/07/11 11:17:29;;;;;;;4.85;4.35;;;45.50;32.40;;;;;;5068312;28;20036;-72
2021/07/11 11:19:56;;;;;;;5.70;4.53;;;45.50;32.20;;;;;;5053861;28;20029;-72
2021/07/11 11:22:21;;;;;;;4.45;4.05;;;45.60;32.60;;;;;;5054139;28;20048;-71
2021/07/11 11:24:47;;;;;;;8.00;4.30;;;45.80;32.80;;;;;;5054612;28;20447;-71
2021/07/11 11:27:13;;;;;;;5.07;4.63;;;45.90;32.50;;;;;;5053521;28;20104;-72
2021/07/11 11:29:38;;;;;;;5.50;4.38;;;46.10;32.10;;;;;;5053941;28;20489;-74
2021/07/11 11:32:11;;;;;;;7.75;4.90;;;46.20;31.90;;;;;;5054011;28;20029;-72
2021/07/11 11:34:38;;;;;;;4.97;4.50;;;46.40;31.80;;;;;;5054164;28;20028;-72
2021/07/11 11:37:04;;;;;;;5.03;4.53;;;46.60;32.10;;;;;;5069204;28;20029;-72
2021/07/11 11:39:31;;;;;;;4.93;4.53;;;46.70;31.70;;;;;;5053620;28;20033;-72
2021/07/11 11:41:57;;;;;;;5.20;4.80;;;46.90;31.60;;;;;;5053869;28;20375;-72
2021/07/11 11:44:25;;;;;;;5.35;4.85;;;47.20;31.60;;;;;;5053454;28;20040;-72
2021/07/11 11:46:56;;;;;;;5.72;4.63;;;47.30;31.70;;;;;;5052312;28;20591;-73
2021/07/11 11:49:27;;;;;;;4.85;4.35;;;47.50;31.80;;;;;;5053390;28;20063;-72
2021/07/11 11:51:58;;;;;;;7.25;5.30;;;47.70;31.40;;;;;;5053734;28;20033;-78
2021/07/11 11:54:25;;;;;;;4.82;4.40;;;47.90;31.10;;;;;;5053863;28;20045;-74
2021/07/11 11:56:51;;;;;;;5.03;4.60;;;48.20;30.90;;;;;;5053686;28;20460;-72
2021/07/11 11:59:17;;;;;;;5.53;4.60;;;48.30;30.60;;;;;;5053439;28;20045;-72
2021/07/11 12:01:42;;;;;;;6.78;4.60;;;48.40;30.70;;;;;;5054032;28;20431;-74
2021/07/11 12:04:12;;;;;;;4.07;3.75;;;48.60;30.70;;;;;;5053456;28;20033;-74
2021/07/11 12:06:39;;;;;;;5.07;4.57;;;48.70;30.60;;;;;;5054123;28;20352;-74
2021/07/11 12:09:06;;;;;;;5.82;4.35;;;48.80;30.60;;;;;;5053523;28;20356;-72
2021/07/11 12:11:32;;;;;;;4.97;4.43;;;48.90;30.50;;;;;;5053335;28;20542;-72
2021/07/11 12:14:09;;;;;;;11.32;4.70;;;48.90;30.40;;;;;;5052854;28;20025;-74
2021/07/11 12:16:35;;;;;;;4.95;4.15;;;49.00;30.30;;;;;;5053124;28;20467;-72
2021/07/11 12:19:06;;;;;;;4.10;3.80;;;49.10;30.50;;;;;;5053190;28;20498;-74
2021/07/11 12:21:32;;;;;;;4.60;4.30;;;49.20;30.40;;;;;;5053249;28;20029;-73
2021/07/11 12:24:12;;;;;;;5.00;4.38;;;49.30;30.20;;;;;;5053463;28;20494;-73
2021/07/11 12:26:41;;;;;;;5.18;4.28;;;49.50;30.10;;;;;;5052355;28;20040;-73
2021/07/11 12:29:08;;;;;;;5.10;4.60;;;49.60;30.20;;;;;;5053575;28;20033;-73
2021/07/11 12:31:34;;;;;;;7.63;4.63;;;49.80;30.20;;;;;;5056668;28;20502;-73
2021/07/11 12:34:05;;;;;;;5.70;4.43;;;49.80;30.00;;;;;;5056873;28;20048;-72
2021/07/11 12:36:31;;;;;;;4.95;4.47;;;50.00;29.80;;;;;;5056930;28;20025;-74
2021/07/11 12:38:58;;;;;;;8.05;4.93;;;50.00;29.80;;;;;;5055390;28;20041;-73
2021/07/11 12:41:35;;;;;;;4.55;4.10;;;50.00;29.70;;;;;;5057358;28;20082;-73
2021/07/11 12:44:04;;;;;;;5.28;4.70;;;50.10;29.70;;;;;;5056539;28;20498;-72
2021/07/11 12:46:31;;;;;;;5.20;4.75;;;50.20;29.80;;;;;;5056811;28;20179;-72
2021/07/11 12:49:08;;;;;;;5.45;4.50;;;50.20;29.60;;;;;;5056685;28;20060;-73